Hlavní strana
METAR-TAF:

METAR-TAF

Letiště :

Fuerteventura, Španělsko

zeměpisná šířka: 28-27N, zeměpisná délka: 013-52W, výška: 22 m

Aktuální stav počasí

Zpráva byla vytvořena před 22 minutami, v 20:00 UTC
Severní vítr 9 kt
Teplota 19°C
Vlhkost vzduchu 60%
Tlak 1024 hPa
Viditelnost 10 km a více
Skoro jasno ve výšce 4500 ft

METAR: GCFV 252000Z 36009KT 9999 FEW045 19/11 Q1024

Čas: 20:22 (20:22 UTC)

Předpověď počasí

Zpráva byla vytvořena před 6 hodinami a 22 minutami, v 14:00 UTC
Předpověď platná od 25 v 15 UTC do 26 v 15 UTC
Severoseverozápadní vítr 9 kt
Viditelnost 10 km a více
Polojasno ve výšce 3500 ft
Změna
od 26 v 09 UTC do 26 v 11 UTC
Severovýchodní vítr 10 kt

TAF: GCFV 251400Z 2515/2615 34009KT 9999 SCT035 TX21/2515Z TN13/2606Z BECMG 2609/2611 04010KT

Stav a předpovědi počasí z více než 4 000 letišť (zprávy METAR a TAF).

Červené a žluté tečky na mapě představují dostupné meteorologické stanice.

Když kurzor umístíte na tečku, zobrazí se název stanice.

Pak kliknutím zobrazíte stav a předpověď počasí.

Chcete-li změnit mapu, kliknutím na zelené tlačítko se znaménkem +mapu přiblížíte, kliknutím na zelené tlačítko se znaménkem – mapu oddálíte a kliknutím na zelené šipky přejdete na sousední mapy.


METAR-TAF: